Monroe, UT (84754)

11:27 AM MST on February 12, 2016 (GMT -0700)
Little Green Valley | | Change Station
CLOSE
Current Station
Personal Weather Station
Location: Monroe, UT
Elevation: 5360 ft
Nearby Weather Stations

Elev 5360 ft 38.64 °N, 112.12 °W | Updated 2 seconds ago

Mostly Cloudy
Mostly Cloudy
43.0 °F
Feels Like 43 °F
N
0.0
Wind Variable Wind from NW
Gusts 0.0 mph

Today
High -- | Low -- °F
--% Chance of Precip.
Yesterday
High -- | Low -- °F
Precip. -- in
Pressure 30.41 in
Visibility 0.2 miles
Clouds Overcast 200 ft
Windchill 43 °F
Dew Point 30 °F
Humidity 60%
Rainfall 0.00 in
Snow Depth Not available.
7:23 AM 6:02 PM
Waxing Crescent, 22% visible
SPECI KMLF 121819Z AUTO 21005KT 1/4SM FZFG OVC002 M11/M11 A3041 RMK AO2 T11061106
Pressure 30.41 in
Visibility 0.2 miles
Clouds Overcast 200 ft
Windchill 43 °F
Dew Point 30 °F
Humidity 60%
Rainfall 0.00 in
Snow Depth Not available.
7:23 AM 6:02 PM
Waxing Crescent, 22% visible
SPECI KMLF 121819Z AUTO 21005KT 1/4SM FZFG OVC002 M11/M11 A3041 RMK AO2 T11061106

10-Day Weather Forecast

Almanac

Astronomy

Feb. 12, 2016 Rise Set
Actual Time
Civil Twilight
Nautical Twilight
Astronomical Twilight
Moon
Length of Visible Light
Length of Day
Tomorrow will be .
, % of the Moon is Illuminated

Today's Extremes

State Highs State Lows

Community

WunderPhotos

Upload Photos

1,892,364 photos uploaded!

WunderBlog® & News

Nearby

Air Quality

  Air Quality AQ Index Pollutant
Not available.

Snow Depth

Station Depth Elevation

Earthquake Activity

City Distance Mag. Time & Date
Minimum magnitude displayed is 2.5.

Coastal Water Temperatures

Place Temperature

Stations

Nearby Weather Stations

Station Location Temp. Windchill Dew Point Humidity Wind Precip. Elev Updated Type
                   

Watches & Warnings

There are currently no watches in effect.